createdAt,value
2017-07-10T00:00:50.649Z,1008.86
2017-07-10T00:01:50.779Z,1008.85
2017-07-10T00:02:50.765Z,1008.81
2017-07-10T00:03:50.769Z,1008.79
2017-07-10T00:04:50.809Z,1008.78
2017-07-10T00:05:50.934Z,1008.75
2017-07-10T00:06:50.847Z,1008.75
2017-07-10T00:07:50.889Z,1008.73
2017-07-10T00:08:50.927Z,1008.68
2017-07-10T00:09:50.969Z,1008.68
2017-07-10T00:10:51.021Z,1008.69
2017-07-10T00:11:51.052Z,1008.7
2017-07-10T00:12:51.166Z,1008.74
2017-07-10T00:13:51.107Z,1008.68
2017-07-10T00:14:51.172Z,1008.67
2017-07-10T00:15:51.190Z,1008.65
2017-07-10T00:16:51.502Z,1008.66
2017-07-10T00:17:51.849Z,1008.67
2017-07-10T00:18:51.401Z,1008.69
2017-07-10T00:19:51.302Z,1008.71
2017-07-10T00:20:51.347Z,1008.69
2017-07-10T00:21:51.359Z,1008.7
2017-07-10T00:22:51.454Z,1008.73
2017-07-10T00:23:51.489Z,1008.68
2017-07-10T00:24:51.525Z,1008.65
2017-07-10T00:25:51.489Z,1008.65
2017-07-10T00:26:51.547Z,1008.66
2017-07-10T00:27:51.748Z,1008.61
2017-07-10T00:28:51.915Z,1008.63
2017-07-10T00:29:51.645Z,1008.58
2017-07-10T00:30:51.681Z,1008.61
2017-07-10T00:31:51.711Z,1008.56
2017-07-10T00:32:51.754Z,1008.58
2017-07-10T00:33:51.766Z,1008.55
2017-07-10T00:34:51.884Z,1008.53
2017-07-10T00:35:51.846Z,1008.53
2017-07-10T00:36:51.861Z,1008.51
2017-07-10T00:37:51.915Z,1008.5
2017-07-10T00:38:51.950Z,1008.48
2017-07-10T00:39:51.978Z,1008.49
2017-07-10T00:40:52.021Z,1008.46
2017-07-10T00:41:52.055Z,1008.4
2017-07-10T00:42:52.072Z,1008.45
2017-07-10T00:43:52.133Z,1008.42
2017-07-10T00:44:52.158Z,1008.41
2017-07-10T00:45:52.195Z,1008.37
2017-07-10T00:46:52.213Z,1008.38
2017-07-10T00:47:52.251Z,1008.39
2017-07-10T00:48:52.297Z,1008.3
2017-07-10T00:49:52.313Z,1008.32
2017-07-10T00:50:52.393Z,1008.37
2017-07-10T00:51:52.376Z,1008.36
2017-07-10T00:52:52.453Z,1008.31
2017-07-10T00:53:52.478Z,1008.34
2017-07-10T00:54:52.777Z,1008.3
2017-07-10T00:55:52.518Z,1008.28
2017-07-10T00:56:52.553Z,1008.3
2017-07-10T00:57:52.590Z,1008.28
2017-07-10T00:58:52.620Z,1008.3
2017-07-10T00:59:52.664Z,1008.31
2017-07-10T01:00:52.669Z,1008.22
2017-07-10T01:01:52.723Z,1008.27
2017-07-10T01:02:52.740Z,1008.22
2017-07-10T01:03:52.864Z,1008.18
2017-07-10T01:04:52.820Z,1008.24
2017-07-10T01:05:52.888Z,1008.2
2017-07-10T01:06:52.888Z,1008.21
2017-07-10T01:07:52.927Z,1008.22
2017-07-10T01:08:52.961Z,1008.22
2017-07-10T01:09:52.993Z,1008.26
2017-07-10T01:10:53.067Z,1008.23
2017-07-10T01:11:53.059Z,1008.22
2017-07-10T01:12:53.091Z,1008.21
2017-07-10T01:13:53.237Z,1008.24
2017-07-10T01:14:53.157Z,1008.25
2017-07-10T01:15:53.406Z,1008.24
2017-07-10T01:16:53.226Z,1008.18
2017-07-10T01:17:53.260Z,1008.14
2017-07-10T01:18:53.282Z,1008.18
2017-07-10T01:19:53.327Z,1008.13
2017-07-10T01:20:53.346Z,1008.09
2017-07-10T01:21:53.380Z,1008.08
2017-07-10T01:22:53.427Z,1008.02
2017-07-10T01:23:53.462Z,1008.02
2017-07-10T01:24:53.753Z,1007.95
2017-07-10T01:25:53.523Z,1007.93
2017-07-10T01:26:53.566Z,1007.87
2017-07-10T01:27:53.827Z,1007.86
2017-07-10T01:28:53.908Z,1007.78
2017-07-10T01:29:53.909Z,1007.8
2017-07-10T01:30:53.692Z,1007.73
2017-07-10T01:31:53.739Z,1007.67
2017-07-10T01:32:53.779Z,1007.69
2017-07-10T01:33:53.787Z,1007.63
2017-07-10T01:34:53.838Z,1007.66
2017-07-10T01:35:53.845Z,1007.64
2017-07-10T01:36:53.895Z,1007.65
2017-07-10T01:37:53.960Z,1007.68
2017-07-10T01:38:53.965Z,1007.63
2017-07-10T01:39:54.001Z,1007.61
2017-07-10T01:40:54.227Z,1007.63
2017-07-10T01:41:54.099Z,1007.64
2017-07-10T01:42:54.099Z,1007.68
2017-07-10T01:43:54.134Z,1007.71
2017-07-10T01:44:54.159Z,1007.66
2017-07-10T01:45:54.211Z,1007.64
2017-07-10T01:46:54.395Z,1007.62
2017-07-10T01:47:54.299Z,1007.69
2017-07-10T01:48:54.357Z,1007.63
2017-07-10T01:49:54.339Z,1007.64
2017-07-10T01:50:54.418Z,1007.69
2017-07-10T01:51:54.433Z,1007.66
2017-07-10T01:52:54.515Z,1007.57
2017-07-10T01:53:54.480Z,1007.68
2017-07-10T01:54:54.508Z,1007.64
2017-07-10T01:55:54.534Z,1007.6
2017-07-10T01:56:54.548Z,1007.63
2017-07-10T01:57:54.606Z,1007.68
2017-07-10T01:58:54.635Z,1007.66
2017-07-10T01:59:54.765Z,1007.66
2017-07-10T02:00:54.701Z,1007.71
2017-07-10T02:01:54.751Z,1007.7
2017-07-10T02:02:54.770Z,1007.7
2017-07-10T02:03:54.801Z,1007.66
2017-07-10T02:04:54.850Z,1007.69
2017-07-10T02:05:54.867Z,1007.64
2017-07-10T02:06:54.904Z,1007.66
2017-07-10T02:07:54.927Z,1007.58
2017-07-10T02:08:54.962Z,1007.61
2017-07-10T02:09:55.003Z,1007.57
2017-07-10T02:10:55.042Z,1007.6
2017-07-10T02:11:55.133Z,1007.61
2017-07-10T02:12:55.110Z,1007.57
2017-07-10T02:13:55.143Z,1007.64
2017-07-10T02:14:55.171Z,1007.63
2017-07-10T02:15:55.208Z,1007.63
2017-07-10T02:16:55.240Z,1007.66
2017-07-10T02:17:55.275Z,1007.69
2017-07-10T02:18:55.308Z,1007.66
2017-07-10T02:19:55.340Z,1007.7
2017-07-10T02:20:55.372Z,1007.7
2017-07-10T02:21:55.408Z,1007.69
2017-07-10T02:22:55.439Z,1007.72
2017-07-10T02:23:55.457Z,1007.78
2017-07-10T02:24:55.506Z,1007.72
2017-07-10T02:25:55.541Z,1007.72
2017-07-10T02:26:55.555Z,1007.77
2017-07-10T02:27:55.607Z,1007.72
2017-07-10T02:28:55.642Z,1007.75
2017-07-10T02:29:55.675Z,1007.76
2017-07-10T02:30:55.711Z,1007.72
2017-07-10T02:31:55.722Z,1007.74
2017-07-10T02:32:55.774Z,1007.72
2017-07-10T02:33:55.813Z,1007.67
2017-07-10T02:34:55.842Z,1007.63
2017-07-10T02:35:55.857Z,1007.67
2017-07-10T02:36:55.911Z,1007.64
2017-07-10T02:37:55.944Z,1007.62
2017-07-10T02:38:55.980Z,1007.59
2017-07-10T02:39:56.007Z,1007.57
2017-07-10T02:40:56.044Z,1007.56
2017-07-10T02:41:56.075Z,1007.55
2017-07-10T02:42:56.117Z,1007.53
2017-07-10T02:43:56.146Z,1007.53
2017-07-10T02:44:56.179Z,1007.5
2017-07-10T02:45:56.238Z,1007.49
2017-07-10T02:46:56.246Z,1007.49
2017-07-10T02:47:56.261Z,1007.45
2017-07-10T02:48:56.315Z,1007.45
2017-07-10T02:49:56.338Z,1007.42
2017-07-10T02:50:56.376Z,1007.39
2017-07-10T02:51:56.417Z,1007.42
2017-07-10T02:52:56.448Z,1007.4
2017-07-10T02:53:56.476Z,1007.42
2017-07-10T02:54:56.511Z,1007.38
2017-07-10T02:55:56.551Z,1007.39
2017-07-10T02:56:56.633Z,1007.4
2017-07-10T02:57:56.648Z,1007.42
2017-07-10T02:58:56.648Z,1007.38
2017-07-10T02:59:56.736Z,1007.43
2017-07-10T03:00:56.722Z,1007.44
2017-07-10T03:01:56.755Z,1007.41
2017-07-10T03:02:56.786Z,1007.41
2017-07-10T03:03:56.818Z,1007.38
2017-07-10T03:04:56.855Z,1007.37
2017-07-10T03:05:56.885Z,1007.35
2017-07-10T03:06:57.010Z,1007.36
2017-07-10T03:07:56.976Z,1007.33
2017-07-10T03:08:56.990Z,1007.35
2017-07-10T03:09:56.997Z,1007.28
2017-07-10T03:10:57.048Z,1007.27
2017-07-10T03:11:57.103Z,1007.22
2017-07-10T03:12:57.121Z,1007.23
2017-07-10T03:13:57.216Z,1007.22
2017-07-10T03:14:57.187Z,1007.18
2017-07-10T03:15:57.218Z,1007.22
2017-07-10T03:16:57.254Z,1007.2
2017-07-10T03:17:57.287Z,1007.14
2017-07-10T03:18:57.321Z,1007.2
2017-07-10T03:19:57.355Z,1007.19
2017-07-10T03:20:57.393Z,1007.18
2017-07-10T03:21:57.422Z,1007.17
2017-07-10T03:22:57.459Z,1007.19
2017-07-10T03:23:57.488Z,1007.16
2017-07-10T03:24:57.521Z,1007.2
2017-07-10T03:25:57.557Z,1007.19
2017-07-10T03:26:57.590Z,1007.17
2017-07-10T03:27:57.624Z,1007.16
2017-07-10T03:28:57.656Z,1007.19
2017-07-10T03:29:57.694Z,1007.16
2017-07-10T03:30:57.735Z,1007.17
2017-07-10T03:31:57.759Z,1007.18
2017-07-10T03:32:57.791Z,1007.18
2017-07-10T03:33:57.837Z,1007.25
2017-07-10T03:34:57.859Z,1007.21
2017-07-10T03:35:57.892Z,1007.22
2017-07-10T03:36:57.910Z,1007.25
2017-07-10T03:37:57.964Z,1007.23
2017-07-10T03:38:57.998Z,1007.23
2017-07-10T03:39:58.018Z,1007.27
2017-07-10T03:40:58.063Z,1007.24
2017-07-10T03:41:58.095Z,1007.24
2017-07-10T03:42:58.131Z,1007.21
2017-07-10T03:43:58.161Z,1007.24
2017-07-10T03:44:58.204Z,1007.23
2017-07-10T03:45:58.231Z,1007.2
2017-07-10T03:46:58.272Z,1007.22
2017-07-10T03:47:58.297Z,1007.2
2017-07-10T03:48:58.331Z,1007.14
2017-07-10T03:49:58.365Z,1007.14
2017-07-10T03:50:58.405Z,1007.1
2017-07-10T03:51:58.432Z,1007.07
2017-07-10T03:52:58.517Z,1007.09
2017-07-10T03:53:58.503Z,1007.1
2017-07-10T03:54:58.533Z,1007.08
2017-07-10T03:55:58.566Z,1007.08
2017-07-10T03:56:58.602Z,1007.07
2017-07-10T03:57:58.636Z,1007.04
2017-07-10T03:58:58.669Z,1007.03
2017-07-10T03:59:58.705Z,1007.02
2017-07-10T04:00:58.758Z,1007.01
2017-07-10T04:01:58.773Z,1007.02
2017-07-10T04:02:58.788Z,1006.97
2017-07-10T04:03:58.858Z,1007.01
2017-07-10T04:04:58.892Z,1006.97
2017-07-10T04:05:58.911Z,1006.99
2017-07-10T04:06:58.955Z,1006.98
2017-07-10T04:07:58.964Z,1007
2017-07-10T04:08:59.003Z,1006.97
2017-07-10T04:09:59.043Z,1007.01
2017-07-10T04:10:59.083Z,1006.95
2017-07-10T04:11:59.103Z,1006.94
2017-07-10T04:12:59.157Z,1006.96
2017-07-10T04:13:59.184Z,1006.94
2017-07-10T04:14:59.201Z,1006.98
2017-07-10T04:15:59.253Z,1006.91
2017-07-10T04:16:59.290Z,1006.94
2017-07-10T04:17:59.298Z,1006.89
2017-07-10T04:18:59.351Z,1006.93
2017-07-10T04:19:59.404Z,1006.98
2017-07-10T04:20:59.418Z,1007.03
2017-07-10T04:21:59.452Z,1007.08
2017-07-10T04:22:59.505Z,1007.03
2017-07-10T04:23:59.518Z,1007.1
2017-07-10T04:24:59.555Z,1007.12
2017-07-10T04:25:59.582Z,1007.15
2017-07-10T04:26:59.615Z,1007.24
2017-07-10T04:27:59.653Z,1007.23
2017-07-10T04:28:59.688Z,1007.22
2017-07-10T04:29:59.724Z,1007.28
2017-07-10T04:30:59.778Z,1007.29
2017-07-10T04:31:59.804Z,1007.09
2017-07-10T04:32:59.840Z,1007.05
2017-07-10T04:33:59.871Z,1006.95
2017-07-10T04:34:59.912Z,1006.92
2017-07-10T04:35:59.930Z,1006.78
2017-07-10T04:36:59.996Z,1006.72
2017-07-10T04:38:00.011Z,1006.69
2017-07-10T04:39:00.058Z,1006.73
2017-07-10T04:40:00.076Z,1006.73
2017-07-10T04:41:00.118Z,1006.67
2017-07-10T04:42:00.150Z,1006.68
2017-07-10T04:43:00.189Z,1006.67
2017-07-10T04:44:00.215Z,1006.66
2017-07-10T04:45:00.283Z,1006.71
2017-07-10T04:46:00.300Z,1006.74
2017-07-10T04:47:00.329Z,1006.71
2017-07-10T04:48:00.367Z,1006.72
2017-07-10T04:49:00.408Z,1006.72
2017-07-10T04:50:00.440Z,1006.7
2017-07-10T04:51:00.479Z,1006.64
2017-07-10T04:52:00.512Z,1006.58
2017-07-10T04:53:00.567Z,1006.56
2017-07-10T04:54:00.605Z,1006.55
2017-07-10T04:55:00.620Z,1006.57
2017-07-10T04:56:00.661Z,1006.54
2017-07-10T04:57:00.699Z,1006.53
2017-07-10T04:58:00.768Z,1006.58
2017-07-10T04:59:00.786Z,1006.63
2017-07-10T05:00:00.851Z,1006.55
2017-07-10T05:01:00.866Z,1006.59
2017-07-10T05:02:00.905Z,1006.58
2017-07-10T05:03:00.910Z,1006.55
2017-07-10T05:04:00.954Z,1006.57
2017-07-10T05:05:01.191Z,1006.55
2017-07-10T05:06:01.008Z,1006.54
2017-07-10T05:07:01.046Z,1006.5
2017-07-10T05:08:01.132Z,1006.46
2017-07-10T05:09:01.121Z,1006.42
2017-07-10T05:10:01.154Z,1006.41
2017-07-10T05:11:01.191Z,1006.45
2017-07-10T05:12:01.227Z,1006.46
2017-07-10T05:13:01.288Z,1006.43
2017-07-10T05:14:01.302Z,1006.38
2017-07-10T05:15:01.333Z,1006.36
2017-07-10T05:16:01.360Z,1006.4
2017-07-10T05:17:01.426Z,1006.37
2017-07-10T05:18:01.439Z,1006.37
2017-07-10T05:19:01.472Z,1006.36
2017-07-10T05:20:01.503Z,1006.31
2017-07-10T05:21:01.552Z,1006.32
2017-07-10T05:22:01.603Z,1006.26
2017-07-10T05:23:01.622Z,1006.29
2017-07-10T05:24:01.677Z,1006.3
2017-07-10T05:25:01.687Z,1006.25
2017-07-10T05:26:01.732Z,1006.27
2017-07-10T05:27:01.757Z,1006.28
2017-07-10T05:28:01.818Z,1006.26
2017-07-10T05:29:01.822Z,1006.28
2017-07-10T05:30:01.875Z,1006.29
2017-07-10T05:31:01.913Z,1006.26
2017-07-10T05:32:01.930Z,1006.26
2017-07-10T05:33:01.969Z,1006.21
2017-07-10T05:34:02.008Z,1006.24
2017-07-10T05:35:02.067Z,1006.19
2017-07-10T05:36:02.071Z,1006.23
2017-07-10T05:37:02.118Z,1006.18
2017-07-10T05:38:02.152Z,1006.2
2017-07-10T05:39:02.202Z,1006.28
2017-07-10T05:40:02.215Z,1006.25
2017-07-10T05:41:02.251Z,1006.21
2017-07-10T05:42:02.337Z,1006.24
2017-07-10T05:43:02.317Z,1006.16
2017-07-10T05:44:02.382Z,1006.19
2017-07-10T05:45:02.411Z,1006.18
2017-07-10T05:46:02.449Z,1006.16
2017-07-10T05:47:02.486Z,1006.13
2017-07-10T05:48:02.494Z,1006.1
2017-07-10T05:49:02.562Z,1006.12
2017-07-10T05:50:02.572Z,1006.1
2017-07-10T05:51:02.606Z,1006.13
2017-07-10T05:52:02.639Z,1006.15
2017-07-10T05:53:02.696Z,1006.14
2017-07-10T05:54:02.713Z,1006.17
2017-07-10T05:55:02.746Z,1006.16
2017-07-10T05:56:02.804Z,1006.09
2017-07-10T05:57:02.825Z,1006.15
2017-07-10T05:58:02.869Z,1006.13
2017-07-10T05:59:02.919Z,1006.05
2017-07-10T06:00:02.955Z,1006.07
2017-07-10T06:01:02.977Z,1006.04
2017-07-10T06:02:03.011Z,1006
2017-07-10T06:03:03.056Z,1006.08
2017-07-10T06:04:03.078Z,1006
2017-07-10T06:05:03.122Z,1006.01
2017-07-10T06:06:03.150Z,1006
2017-07-10T06:07:03.186Z,1005.93
2017-07-10T06:08:03.222Z,1005.98
2017-07-10T06:09:03.260Z,1005.99
2017-07-10T06:10:03.317Z,1005.97
2017-07-10T06:11:03.344Z,1005.97
2017-07-10T06:12:03.467Z,1005.99
2017-07-10T06:13:03.399Z,1006
2017-07-10T06:14:03.437Z,1006.04
2017-07-10T06:15:03.484Z,1006.04
2017-07-10T06:16:03.495Z,1006.08
2017-07-10T06:17:03.602Z,1006.12
2017-07-10T06:18:03.581Z,1006.11
2017-07-10T06:19:03.619Z,1006.14
2017-07-10T06:20:03.676Z,1006.14
2017-07-10T06:21:03.702Z,1006.14
2017-07-10T06:22:03.716Z,1006.12
2017-07-10T06:23:03.767Z,1006.13
2017-07-10T06:24:03.824Z,1006.11
2017-07-10T06:25:03.847Z,1006.12
2017-07-10T06:26:03.874Z,1006.1
2017-07-10T06:27:03.917Z,1006.15
2017-07-10T06:28:03.951Z,1006.13
2017-07-10T06:29:03.988Z,1006.08
2017-07-10T06:30:04.031Z,1006.1
2017-07-10T06:31:04.059Z,1006.02
2017-07-10T06:32:04.117Z,1006.05
2017-07-10T06:33:04.121Z,1006.09
2017-07-10T06:34:04.170Z,1006.05
2017-07-10T06:35:04.213Z,1006.06
2017-07-10T06:36:04.230Z,1006.07
2017-07-10T06:37:04.279Z,1006.06
2017-07-10T06:38:04.322Z,1006.06
2017-07-10T06:39:04.347Z,1006.08
2017-07-10T06:40:04.428Z,1006.07
2017-07-10T06:41:04.418Z,1006.07
2017-07-10T06:42:04.498Z,1006.06
2017-07-10T06:43:04.497Z,1006.12
2017-07-10T06:44:04.524Z,1006.09
2017-07-10T06:45:04.562Z,1006.03
2017-07-10T06:46:04.608Z,1006.03
2017-07-10T06:47:04.657Z,1005.98
2017-07-10T06:48:04.699Z,1006
2017-07-10T06:49:04.736Z,1005.95
2017-07-10T06:50:04.750Z,1005.89
2017-07-10T06:51:04.792Z,1005.9
2017-07-10T06:52:04.817Z,1005.9
2017-07-10T06:53:04.858Z,1005.92
2017-07-10T06:54:04.904Z,1005.87
2017-07-10T06:55:04.933Z,1005.88
2017-07-10T06:56:04.990Z,1005.86
2017-07-10T06:57:05.022Z,1005.88
2017-07-10T06:58:05.041Z,1005.89
2017-07-10T06:59:05.073Z,1005.87
2017-07-10T07:00:05.109Z,1005.84
2017-07-10T07:01:05.157Z,1005.9
2017-07-10T07:02:05.184Z,1005.82
2017-07-10T07:03:05.541Z,1005.84
2017-07-10T07:04:05.274Z,1005.82
2017-07-10T07:05:05.294Z,1005.83
2017-07-10T07:06:05.337Z,1005.85
2017-07-10T07:07:05.362Z,1005.83
2017-07-10T07:08:05.422Z,1005.87
2017-07-10T07:09:05.424Z,1005.75
2017-07-10T07:10:05.494Z,1005.76
2017-07-10T07:11:05.552Z,1005.71
2017-07-10T07:12:05.542Z,1005.72
2017-07-10T07:13:05.593Z,1005.71
2017-07-10T07:14:05.639Z,1005.7
2017-07-10T07:15:05.726Z,1005.69
2017-07-10T07:16:05.685Z,1005.71
2017-07-10T07:17:05.733Z,1005.69
2017-07-10T07:18:05.773Z,1005.67
2017-07-10T07:19:05.819Z,1005.7
2017-07-10T07:20:05.834Z,1005.63
2017-07-10T07:21:05.858Z,1005.67
2017-07-10T07:22:05.920Z,1005.7
2017-07-10T07:23:05.941Z,1005.66
2017-07-10T07:24:05.986Z,1005.63
2017-07-10T07:25:06.063Z,1005.66
2017-07-10T07:26:06.048Z,1005.71
2017-07-10T07:27:06.076Z,1005.73
2017-07-10T07:28:06.121Z,1005.7
2017-07-10T07:29:06.187Z,1005.75
2017-07-10T07:30:06.192Z,1005.74
2017-07-10T07:31:06.234Z,1005.7
2017-07-10T07:32:06.296Z,1005.72
2017-07-10T07:33:06.331Z,1005.76
2017-07-10T07:34:06.347Z,1005.77
2017-07-10T07:35:06.385Z,1005.76
2017-07-10T07:36:06.461Z,1005.73
2017-07-10T07:37:06.453Z,1005.79
2017-07-10T07:38:06.515Z,1005.77
2017-07-10T07:39:06.539Z,1005.79
2017-07-10T07:40:06.570Z,1005.78
2017-07-10T07:41:06.595Z,1005.74
2017-07-10T07:42:06.628Z,1005.78
2017-07-10T07:43:06.691Z,1005.74
2017-07-10T07:44:06.728Z,1005.75
2017-07-10T07:45:06.746Z,1005.72
2017-07-10T07:46:06.805Z,1005.76
2017-07-10T07:47:06.839Z,1005.81
2017-07-10T07:48:06.858Z,1005.84
2017-07-10T07:49:06.892Z,1005.88
2017-07-10T07:50:06.923Z,1005.9
2017-07-10T07:51:06.987Z,1005.89
2017-07-10T07:52:07.012Z,1005.89
2017-07-10T07:53:07.040Z,1005.92
2017-07-10T07:54:07.073Z,1005.87
2017-07-10T07:55:07.115Z,1005.87
2017-07-10T07:56:07.148Z,1005.91
2017-07-10T07:57:07.182Z,1005.94
2017-07-10T07:58:07.239Z,1005.94
2017-07-10T07:59:07.252Z,1005.94
2017-07-10T08:00:07.288Z,1005.96
2017-07-10T08:01:07.398Z,1005.95
2017-07-10T08:02:07.368Z,1005.92
2017-07-10T08:03:07.472Z,1005.95
2017-07-10T08:04:07.438Z,1005.94
2017-07-10T08:05:07.495Z,1005.95
2017-07-10T08:06:07.509Z,1005.95
2017-07-10T08:07:07.560Z,1005.94
2017-07-10T08:08:07.606Z,1005.92
2017-07-10T08:09:07.635Z,1005.99
2017-07-10T08:10:07.664Z,1006.01
2017-07-10T08:11:07.698Z,1006.02
2017-07-10T08:12:07.731Z,1006.07
2017-07-10T08:13:07.773Z,1006.17
2017-07-10T08:14:07.819Z,1006.22
2017-07-10T08:15:07.845Z,1006.32
2017-07-10T08:16:07.870Z,1006.39
2017-07-10T08:17:07.937Z,1006.51
2017-07-10T08:18:07.942Z,1006.51
2017-07-10T08:19:07.980Z,1006.58
2017-07-10T08:20:08.010Z,1006.53
2017-07-10T08:21:08.056Z,1006.54
2017-07-10T08:22:08.093Z,1006.58
2017-07-10T08:23:08.121Z,1006.48
2017-07-10T08:24:08.157Z,1006.55
2017-07-10T08:25:08.195Z,1006.56
2017-07-10T08:26:08.225Z,1006.64
2017-07-10T08:27:08.271Z,1006.66
2017-07-10T08:28:08.315Z,1006.62
2017-07-10T08:29:08.341Z,1006.72
2017-07-10T08:30:08.364Z,1006.69
2017-07-10T08:31:08.433Z,1006.65
2017-07-10T08:32:08.446Z,1006.64
2017-07-10T08:33:08.477Z,1006.6
2017-07-10T08:34:08.525Z,1006.58
2017-07-10T08:35:08.562Z,1006.57
2017-07-10T08:36:08.594Z,1006.54
2017-07-10T08:37:08.625Z,1006.57
2017-07-10T08:38:08.658Z,1006.45
2017-07-10T08:39:08.741Z,1006.48
2017-07-10T08:40:08.726Z,1006.42
2017-07-10T08:41:08.770Z,1006.37
2017-07-10T08:42:08.804Z,1006.31
2017-07-10T08:43:08.832Z,1006.26
2017-07-10T08:44:08.872Z,1006.31
2017-07-10T08:45:08.900Z,1006.21
2017-07-10T08:46:08.943Z,1006.22
2017-07-10T08:47:08.973Z,1006.16
2017-07-10T08:48:09.019Z,1006.1
2017-07-10T08:49:09.051Z,1006.08
2017-07-10T08:50:09.091Z,1006.08
2017-07-10T08:51:09.137Z,1006.07
2017-07-10T08:52:09.178Z,1006.06
2017-07-10T08:53:09.207Z,1006.06
2017-07-10T08:54:09.253Z,1006.04
2017-07-10T08:55:09.258Z,1006.02
2017-07-10T08:56:09.291Z,1005.95
2017-07-10T08:57:09.325Z,1005.95
2017-07-10T08:58:09.363Z,1005.95
2017-07-10T08:59:09.411Z,1006.02
2017-07-10T09:00:09.425Z,1005.98
2017-07-10T09:01:09.862Z,1005.95
2017-07-10T09:02:09.996Z,1005.93
2017-07-10T09:03:09.938Z,1005.89
2017-07-10T09:04:09.969Z,1005.89
2017-07-10T09:05:10.021Z,1005.81
2017-07-10T09:06:10.041Z,1005.81
2017-07-10T09:07:10.075Z,1005.77
2017-07-10T09:08:10.155Z,1005.72
2017-07-10T09:09:10.140Z,1005.7
2017-07-10T09:10:10.180Z,1005.62
2017-07-10T09:11:10.233Z,1005.6
2017-07-10T09:12:10.261Z,1005.59
2017-07-10T09:13:10.283Z,1005.54
2017-07-10T09:14:10.320Z,1005.51
2017-07-10T09:15:10.392Z,1005.49
2017-07-10T09:16:10.399Z,1005.47
2017-07-10T09:17:10.418Z,1005.43
2017-07-10T09:18:10.457Z,1005.46
2017-07-10T09:19:10.492Z,1005.43
2017-07-10T09:20:10.544Z,1005.52
2017-07-10T09:21:10.556Z,1005.58
2017-07-10T09:22:10.589Z,1005.63
2017-07-10T09:23:10.627Z,1005.61
2017-07-10T09:24:10.664Z,1005.57
2017-07-10T09:25:10.687Z,1005.49
2017-07-10T09:26:10.733Z,1005.53
2017-07-10T09:27:10.791Z,1005.5
2017-07-10T09:28:10.800Z,1005.5
2017-07-10T09:29:10.839Z,1005.52
2017-07-10T09:30:10.888Z,1005.51
2017-07-10T09:31:10.903Z,1005.49
2017-07-10T09:32:10.943Z,1005.39
2017-07-10T09:33:10.978Z,1005.27
2017-07-10T09:34:11.015Z,1005.21
2017-07-10T09:35:11.030Z,1005.09
2017-07-10T09:36:11.071Z,1005.09
2017-07-10T09:37:11.133Z,1005.1
2017-07-10T09:38:11.140Z,1005.14
2017-07-10T09:39:11.185Z,1005.13
2017-07-10T09:40:11.512Z,1005.15
2017-07-10T09:41:11.266Z,1005.17
2017-07-10T09:42:11.294Z,1005.2
2017-07-10T09:43:11.328Z,1005.23
2017-07-10T09:44:11.346Z,1005.23
2017-07-10T09:45:11.404Z,1005.24
2017-07-10T09:46:11.446Z,1005.28
2017-07-10T09:47:11.445Z,1005.3
2017-07-10T09:48:11.513Z,1005.31
2017-07-10T09:49:11.550Z,1005.33
2017-07-10T09:50:11.557Z,1005.31
2017-07-10T09:51:11.596Z,1005.29
2017-07-10T09:52:11.626Z,1005.24
2017-07-10T09:53:11.684Z,1005.19
2017-07-10T09:54:11.693Z,1005.21
2017-07-10T09:55:11.732Z,1005.18
2017-07-10T09:56:11.785Z,1005.19
2017-07-10T09:57:11.795Z,1005.21
2017-07-10T09:58:11.827Z,1005.19
2017-07-10T09:59:11.856Z,1005.13
2017-07-10T10:00:11.907Z,1005.06
2017-07-10T10:01:20.314Z,1004.97
2017-07-10T10:02:11.988Z,1004.9
2017-07-10T10:03:12.006Z,1004.85
2017-07-10T10:04:12.046Z,1004.93
2017-07-10T10:05:12.068Z,1004.86
2017-07-10T10:06:12.101Z,1004.78
2017-07-10T10:07:12.128Z,1004.74
2017-07-10T10:08:12.179Z,1004.64
2017-07-10T10:09:12.208Z,1004.64
2017-07-10T10:10:12.332Z,1004.59
2017-07-10T10:11:12.266Z,1004.67
2017-07-10T10:12:12.322Z,1004.72
2017-07-10T10:13:12.335Z,1004.77
2017-07-10T10:14:12.393Z,1004.6
2017-07-10T10:15:12.435Z,1004.66
2017-07-10T10:16:12.436Z,1004.64
2017-07-10T10:17:12.472Z,1004.63
2017-07-10T10:18:12.518Z,1004.7
2017-07-10T10:19:12.546Z,1004.78
2017-07-10T10:20:12.577Z,1004.69
2017-07-10T10:21:12.618Z,1004.66
2017-07-10T10:22:12.650Z,1004.69
2017-07-10T10:23:12.689Z,1004.7
2017-07-10T10:24:12.737Z,1004.72
2017-07-10T10:25:12.753Z,1004.66
2017-07-10T10:26:12.786Z,1004.71
2017-07-10T10:27:12.851Z,1004.64
2017-07-10T10:28:12.846Z,1004.64
2017-07-10T10:29:12.874Z,1004.7
2017-07-10T10:30:12.934Z,1004.68
2017-07-10T10:31:12.945Z,1004.6
2017-07-10T10:32:12.988Z,1004.72
2017-07-10T10:33:13.029Z,1004.6
2017-07-10T10:34:13.073Z,1004.65
2017-07-10T10:35:13.094Z,1004.66
2017-07-10T10:36:13.133Z,1004.77
2017-07-10T10:37:13.173Z,1004.72
2017-07-10T10:38:13.201Z,1004.74
2017-07-10T10:39:13.252Z,1004.74
2017-07-10T10:40:13.271Z,1004.74
2017-07-10T10:41:13.320Z,1004.8
2017-07-10T10:42:13.334Z,1004.8
2017-07-10T10:43:13.376Z,1004.76
2017-07-10T10:44:13.403Z,1004.81
2017-07-10T10:45:13.466Z,1004.8
2017-07-10T10:46:13.473Z,1004.83
2017-07-10T10:47:13.511Z,1004.84
2017-07-10T10:48:13.554Z,1004.85
2017-07-10T10:49:13.576Z,1004.89
2017-07-10T10:50:13.618Z,1004.95
2017-07-10T10:51:13.648Z,1004.99
2017-07-10T10:52:13.693Z,1005.02
2017-07-10T10:53:13.720Z,1004.99
2017-07-10T10:54:13.749Z,1005.01
2017-07-10T10:55:13.790Z,1005.03
2017-07-10T10:56:13.834Z,1005.01
2017-07-10T10:57:13.860Z,1004.99
2017-07-10T10:58:13.894Z,1005.02
2017-07-10T10:59:13.980Z,1005
2017-07-10T11:00:13.972Z,1005.05
2017-07-10T11:01:14.025Z,1005.01
2017-07-10T11:02:14.064Z,1005.04
2017-07-10T11:03:14.153Z,1005.07
2017-07-10T11:04:14.189Z,1005.08
2017-07-10T11:05:14.154Z,1005.11
2017-07-10T11:06:14.207Z,1005.08
2017-07-10T11:07:14.219Z,1005.05
2017-07-10T11:08:14.276Z,1005.03
2017-07-10T11:09:14.292Z,1005.06
2017-07-10T11:10:14.329Z,1005.02
2017-07-10T11:11:14.455Z,1005.05
2017-07-10T11:12:14.390Z,1005.03
2017-07-10T11:13:14.436Z,1004.99
2017-07-10T11:14:14.455Z,1004.99
2017-07-10T11:15:14.602Z,1004.97
2017-07-10T11:16:14.534Z,1005.04
2017-07-10T11:17:14.573Z,1005.02
2017-07-10T11:18:14.608Z,1004.99
2017-07-10T11:19:14.671Z,1005.03
2017-07-10T11:20:14.677Z,1005.03
2017-07-10T11:21:14.723Z,1005.03
2017-07-10T11:22:14.761Z,1005.05
2017-07-10T11:23:14.775Z,1005.08
2017-07-10T11:24:14.825Z,1005.06
2017-07-10T11:25:14.868Z,1005.09
2017-07-10T11:26:14.913Z,1005.07
2017-07-10T11:27:14.948Z,1005.08
2017-07-10T11:28:14.985Z,1005.04
2017-07-10T11:29:15.002Z,1005.09
2017-07-10T11:30:15.022Z,1005.06
2017-07-10T11:31:15.089Z,1005.11
2017-07-10T11:32:15.110Z,1005.07
2017-07-10T11:33:15.142Z,1005.03
2017-07-10T11:34:15.168Z,1005.08
2017-07-10T11:35:15.215Z,1005.03
2017-07-10T11:36:15.266Z,1005.07
2017-07-10T11:37:15.284Z,1005.02
2017-07-10T11:38:15.319Z,1005.07
2017-07-10T11:39:15.377Z,1005
2017-07-10T11:40:15.392Z,1005.01
2017-07-10T11:41:15.443Z,1005.04
2017-07-10T11:42:15.462Z,1005.04
2017-07-10T11:43:15.496Z,1005.06
2017-07-10T11:44:15.549Z,1005.01
2017-07-10T11:45:15.571Z,1005.07
2017-07-10T11:46:15.601Z,1005.02
2017-07-10T11:47:15.644Z,1005.01
2017-07-10T11:48:15.682Z,1005
2017-07-10T11:49:15.711Z,1005.03
2017-07-10T11:50:15.771Z,1004.98
2017-07-10T11:51:15.847Z,1005.03
2017-07-10T11:52:15.840Z,1005.01
2017-07-10T11:53:15.876Z,1004.99
2017-07-10T11:54:15.880Z,1005
2017-07-10T11:55:15.922Z,1004.95
2017-07-10T11:56:15.964Z,1004.99
2017-07-10T11:57:16.006Z,1005.02
2017-07-10T11:58:16.055Z,1004.98
2017-07-10T11:59:16.088Z,1004.97
2017-07-10T12:00:16.094Z,1005
2017-07-10T12:01:16.134Z,1005.04
2017-07-10T12:02:16.178Z,1005.03
2017-07-10T12:03:16.213Z,1005.06
2017-07-10T12:04:16.266Z,1005.05
2017-07-10T12:05:16.277Z,1005.05
2017-07-10T12:06:16.340Z,1005.05
2017-07-10T12:07:16.359Z,1005.03
2017-07-10T12:08:16.389Z,1004.97
2017-07-10T12:09:16.435Z,1004.99